<?xml version="1.0" encoding="UTF-8" standalone="no" ?>
<gpx xmlns="http://www.topografix.com/GPX/1/1" xmlns:xsi="http://www.w3.org/2001/XMLSchema-instance" xsi:schemaLocation="http://www.topografix.com/GPX/1/1 http://www.topografix.com/GPX/1/1/gpx.xsd" version="1.1" creator="VisuGPX - https://www.visugpx.com">
  <metadata>
    <name>14783855-rando 31 mai gué-Vertou original</name>
  </metadata>
  <trk>
    <name><![CDATA[14783855-rando 31 mai gué-Vertou original]]></name>
    <trkseg>
      <trkpt lat="47.14191" lon="-1.38883">
        <ele>8</ele>
        <time>2022-05-20T12:21:36Z</time>
      </trkpt>
      <trkpt lat="47.14191" lon="-1.3889">
        <ele>8</ele>
        <time>2022-05-20T12:21:42Z</time>
      </trkpt>
      <trkpt lat="47.14169" lon="-1.38916">
        <ele>9</ele>
        <time>2022-05-20T12:22:20Z</time>
      </trkpt>
      <trkpt lat="47.14156" lon="-1.3895">
        <ele>15</ele>
        <time>2022-05-20T12:22:55Z</time>
      </trkpt>
      <trkpt lat="47.14147" lon="-1.38953">
        <ele>16</ele>
        <time>2022-05-20T12:23:08Z</time>
      </trkpt>
      <trkpt lat="47.14141" lon="-1.38949">
        <ele>17</ele>
        <time>2022-05-20T12:23:17Z</time>
      </trkpt>
      <trkpt lat="47.14138" lon="-1.38959">
        <ele>18</ele>
        <time>2022-05-20T12:23:26Z</time>
      </trkpt>
      <trkpt lat="47.14161" lon="-1.39001">
        <ele>20</ele>
        <time>2022-05-20T12:24:15Z</time>
      </trkpt>
      <trkpt lat="47.14182" lon="-1.3903">
        <ele>19</ele>
        <time>2022-05-20T12:24:54Z</time>
      </trkpt>
      <trkpt lat="47.14188" lon="-1.39051">
        <ele>20</ele>
        <time>2022-05-20T12:25:15Z</time>
      </trkpt>
      <trkpt lat="47.14213" lon="-1.39077">
        <ele>17</ele>
        <time>2022-05-20T12:25:55Z</time>
      </trkpt>
      <trkpt lat="47.14227" lon="-1.39103">
        <ele>16</ele>
        <time>2022-05-20T12:26:25Z</time>
      </trkpt>
      <trkpt lat="47.14262" lon="-1.39145">
        <ele>14</ele>
        <time>2022-05-20T12:27:26Z</time>
      </trkpt>
      <trkpt lat="47.14294" lon="-1.39221">
        <ele>12</ele>
        <time>2022-05-20T12:28:47Z</time>
      </trkpt>
      <trkpt lat="47.14322" lon="-1.39263">
        <ele>10</ele>
        <time>2022-05-20T12:29:40Z</time>
      </trkpt>
      <trkpt lat="47.14327" lon="-1.3928">
        <ele>9</ele>
        <time>2022-05-20T12:29:57Z</time>
      </trkpt>
      <trkpt lat="47.14309" lon="-1.39291">
        <ele>10</ele>
        <time>2022-05-20T12:30:23Z</time>
      </trkpt>
      <trkpt lat="47.14306" lon="-1.39303">
        <ele>11</ele>
        <time>2022-05-20T12:30:35Z</time>
      </trkpt>
      <trkpt lat="47.14308" lon="-1.39312">
        <ele>10</ele>
        <time>2022-05-20T12:30:43Z</time>
      </trkpt>
      <trkpt lat="47.14328" lon="-1.39341">
        <ele>9</ele>
        <time>2022-05-20T12:31:21Z</time>
      </trkpt>
      <trkpt lat="47.14311" lon="-1.39429">
        <ele>9</ele>
        <time>2022-05-20T12:32:44Z</time>
      </trkpt>
      <trkpt lat="47.14315" lon="-1.39448">
        <ele>9</ele>
        <time>2022-05-20T12:33:02Z</time>
      </trkpt>
      <trkpt lat="47.14303" lon="-1.3947">
        <ele>9</ele>
        <time>2022-05-20T12:33:27Z</time>
      </trkpt>
      <trkpt lat="47.14304" lon="-1.39485">
        <ele>9</ele>
        <time>2022-05-20T12:33:41Z</time>
      </trkpt>
      <trkpt lat="47.14309" lon="-1.39493">
        <ele>9</ele>
        <time>2022-05-20T12:33:51Z</time>
      </trkpt>
      <trkpt lat="47.14302" lon="-1.39534">
        <ele>8</ele>
        <time>2022-05-20T12:34:29Z</time>
      </trkpt>
      <trkpt lat="47.14307" lon="-1.39557">
        <ele>8</ele>
        <time>2022-05-20T12:34:51Z</time>
      </trkpt>
      <trkpt lat="47.14304" lon="-1.39567">
        <ele>7</ele>
        <time>2022-05-20T12:35:01Z</time>
      </trkpt>
      <trkpt lat="47.14298" lon="-1.39573">
        <ele>8</ele>
        <time>2022-05-20T12:35:11Z</time>
      </trkpt>
      <trkpt lat="47.14279" lon="-1.39567">
        <ele>9</ele>
        <time>2022-05-20T12:35:37Z</time>
      </trkpt>
      <trkpt lat="47.1427" lon="-1.39571">
        <ele>10</ele>
        <time>2022-05-20T12:35:49Z</time>
      </trkpt>
      <trkpt lat="47.14253" lon="-1.39595">
        <ele>10</ele>
        <time>2022-05-20T12:36:21Z</time>
      </trkpt>
      <trkpt lat="47.14248" lon="-1.39614">
        <ele>10</ele>
        <time>2022-05-20T12:36:39Z</time>
      </trkpt>
      <trkpt lat="47.14239" lon="-1.39624">
        <ele>11</ele>
        <time>2022-05-20T12:36:54Z</time>
      </trkpt>
      <trkpt lat="47.14225" lon="-1.39628">
        <ele>12</ele>
        <time>2022-05-20T12:37:13Z</time>
      </trkpt>
      <trkpt lat="47.14185" lon="-1.39627">
        <ele>16</ele>
        <time>2022-05-20T12:38:07Z</time>
      </trkpt>
      <trkpt lat="47.14174" lon="-1.3963">
        <ele>17</ele>
        <time>2022-05-20T12:38:22Z</time>
      </trkpt>
      <trkpt lat="47.14134" lon="-1.39645">
        <ele>21</ele>
        <time>2022-05-20T12:39:17Z</time>
      </trkpt>
      <trkpt lat="47.14117" lon="-1.39659">
        <ele>22</ele>
        <time>2022-05-20T12:39:43Z</time>
      </trkpt>
      <trkpt lat="47.14124" lon="-1.39734">
        <ele>26</ele>
        <time>2022-05-20T12:40:52Z</time>
      </trkpt>
      <trkpt lat="47.14117" lon="-1.39748">
        <ele>27</ele>
        <time>2022-05-20T12:41:07Z</time>
      </trkpt>
      <trkpt lat="47.14104" lon="-1.39752">
        <ele>29</ele>
        <time>2022-05-20T12:41:25Z</time>
      </trkpt>
      <trkpt lat="47.14109" lon="-1.39748">
        <ele>28</ele>
        <time>2022-05-20T12:41:33Z</time>
      </trkpt>
      <trkpt lat="47.14114" lon="-1.39754">
        <ele>28</ele>
        <time>2022-05-20T12:41:41Z</time>
      </trkpt>
      <trkpt lat="47.14124" lon="-1.39779">
        <ele>28</ele>
        <time>2022-05-20T12:42:08Z</time>
      </trkpt>
      <trkpt lat="47.14127" lon="-1.39816">
        <ele>29</ele>
        <time>2022-05-20T12:42:41Z</time>
      </trkpt>
      <trkpt lat="47.14142" lon="-1.39853">
        <ele>30</ele>
        <time>2022-05-20T12:43:20Z</time>
      </trkpt>
      <trkpt lat="47.14153" lon="-1.39871">
        <ele>31</ele>
        <time>2022-05-20T12:43:42Z</time>
      </trkpt>
      <trkpt lat="47.142" lon="-1.39909">
        <ele>32</ele>
        <time>2022-05-20T12:44:54Z</time>
      </trkpt>
      <trkpt lat="47.14234" lon="-1.39972">
        <ele>35</ele>
        <time>2022-05-20T12:46:07Z</time>
      </trkpt>
      <trkpt lat="47.14244" lon="-1.39975">
        <ele>35</ele>
        <time>2022-05-20T12:46:21Z</time>
      </trkpt>
      <trkpt lat="47.14261" lon="-1.39973">
        <ele>34</ele>
        <time>2022-05-20T12:46:43Z</time>
      </trkpt>
      <trkpt lat="47.14279" lon="-1.39954">
        <ele>31</ele>
        <time>2022-05-20T12:47:13Z</time>
      </trkpt>
      <trkpt lat="47.1429" lon="-1.39947">
        <ele>30</ele>
        <time>2022-05-20T12:47:29Z</time>
      </trkpt>
      <trkpt lat="47.14303" lon="-1.39945">
        <ele>28</ele>
        <time>2022-05-20T12:47:46Z</time>
      </trkpt>
      <trkpt lat="47.14336" lon="-1.39963">
        <ele>28</ele>
        <time>2022-05-20T12:48:33Z</time>
      </trkpt>
      <trkpt lat="47.1437" lon="-1.39964">
        <ele>28</ele>
        <time>2022-05-20T12:49:19Z</time>
      </trkpt>
      <trkpt lat="47.14394" lon="-1.39974">
        <ele>30</ele>
        <time>2022-05-20T12:49:52Z</time>
      </trkpt>
      <trkpt lat="47.14426" lon="-1.39994">
        <ele>33</ele>
        <time>2022-05-20T12:50:38Z</time>
      </trkpt>
      <trkpt lat="47.14478" lon="-1.39992">
        <ele>35</ele>
        <time>2022-05-20T12:51:48Z</time>
      </trkpt>
      <trkpt lat="47.14508" lon="-1.39976">
        <ele>33</ele>
        <time>2022-05-20T12:52:30Z</time>
      </trkpt>
      <trkpt lat="47.14545" lon="-1.39946">
        <ele>31</ele>
        <time>2022-05-20T12:53:27Z</time>
      </trkpt>
      <trkpt lat="47.14566" lon="-1.39912">
        <ele>29</ele>
        <time>2022-05-20T12:54:09Z</time>
      </trkpt>
      <trkpt lat="47.1459" lon="-1.39889">
        <ele>27</ele>
        <time>2022-05-20T12:54:47Z</time>
      </trkpt>
      <trkpt lat="47.14606" lon="-1.39867">
        <ele>26</ele>
        <time>2022-05-20T12:55:16Z</time>
      </trkpt>
      <trkpt lat="47.14623" lon="-1.39855">
        <ele>26</ele>
        <time>2022-05-20T12:55:41Z</time>
      </trkpt>
      <trkpt lat="47.14658" lon="-1.39811">
        <ele>25</ele>
        <time>2022-05-20T12:56:43Z</time>
      </trkpt>
      <trkpt lat="47.14667" lon="-1.39787">
        <ele>24</ele>
        <time>2022-05-20T12:57:07Z</time>
      </trkpt>
      <trkpt lat="47.14679" lon="-1.39775">
        <ele>23</ele>
        <time>2022-05-20T12:57:27Z</time>
      </trkpt>
      <trkpt lat="47.1469" lon="-1.3977">
        <ele>22</ele>
        <time>2022-05-20T12:57:42Z</time>
      </trkpt>
      <trkpt lat="47.14696" lon="-1.39758">
        <ele>21</ele>
        <time>2022-05-20T12:57:56Z</time>
      </trkpt>
      <trkpt lat="47.14706" lon="-1.39751">
        <ele>21</ele>
        <time>2022-05-20T12:58:11Z</time>
      </trkpt>
      <trkpt lat="47.14765" lon="-1.39734">
        <ele>16</ele>
        <time>2022-05-20T12:59:31Z</time>
      </trkpt>
      <trkpt lat="47.14771" lon="-1.39743">
        <ele>16</ele>
        <time>2022-05-20T12:59:42Z</time>
      </trkpt>
      <trkpt lat="47.14784" lon="-1.39808">
        <ele>16</ele>
        <time>2022-05-20T13:00:44Z</time>
      </trkpt>
      <trkpt lat="47.14797" lon="-1.39927">
        <ele>15</ele>
        <time>2022-05-20T13:02:33Z</time>
      </trkpt>
      <trkpt lat="47.14804" lon="-1.39937">
        <ele>15</ele>
        <time>2022-05-20T13:02:46Z</time>
      </trkpt>
      <trkpt lat="47.14821" lon="-1.39936">
        <ele>13</ele>
        <time>2022-05-20T13:03:09Z</time>
      </trkpt>
      <trkpt lat="47.14829" lon="-1.39957">
        <ele>12</ele>
        <time>2022-05-20T13:03:31Z</time>
      </trkpt>
      <trkpt lat="47.1484" lon="-1.40031">
        <ele>11</ele>
        <time>2022-05-20T13:04:39Z</time>
      </trkpt>
      <trkpt lat="47.14841" lon="-1.40084">
        <ele>11</ele>
        <time>2022-05-20T13:05:27Z</time>
      </trkpt>
      <trkpt lat="47.14834" lon="-1.40093">
        <ele>11</ele>
        <time>2022-05-20T13:05:40Z</time>
      </trkpt>
      <trkpt lat="47.14809" lon="-1.40101">
        <ele>14</ele>
        <time>2022-05-20T13:06:14Z</time>
      </trkpt>
      <trkpt lat="47.14798" lon="-1.4011">
        <ele>15</ele>
        <time>2022-05-20T13:06:31Z</time>
      </trkpt>
      <trkpt lat="47.14784" lon="-1.40142">
        <ele>17</ele>
        <time>2022-05-20T13:07:05Z</time>
      </trkpt>
      <trkpt lat="47.14792" lon="-1.40157">
        <ele>16</ele>
        <time>2022-05-20T13:07:23Z</time>
      </trkpt>
      <trkpt lat="47.14792" lon="-1.40165">
        <ele>16</ele>
        <time>2022-05-20T13:07:30Z</time>
      </trkpt>
      <trkpt lat="47.14783" lon="-1.40164">
        <ele>17</ele>
        <time>2022-05-20T13:07:42Z</time>
      </trkpt>
      <trkpt lat="47.14772" lon="-1.40154">
        <ele>18</ele>
        <time>2022-05-20T13:07:59Z</time>
      </trkpt>
      <trkpt lat="47.14734" lon="-1.40175">
        <ele>23</ele>
        <time>2022-05-20T13:08:53Z</time>
      </trkpt>
      <trkpt lat="47.14728" lon="-1.40187">
        <ele>24</ele>
        <time>2022-05-20T13:09:07Z</time>
      </trkpt>
      <trkpt lat="47.14728" lon="-1.40211">
        <ele>26</ele>
        <time>2022-05-20T13:09:29Z</time>
      </trkpt>
      <trkpt lat="47.14721" lon="-1.40236">
        <ele>27</ele>
        <time>2022-05-20T13:09:53Z</time>
      </trkpt>
      <trkpt lat="47.14726" lon="-1.40272">
        <ele>27</ele>
        <time>2022-05-20T13:10:27Z</time>
      </trkpt>
      <trkpt lat="47.14716" lon="-1.4033">
        <ele>28</ele>
        <time>2022-05-20T13:11:21Z</time>
      </trkpt>
      <trkpt lat="47.14694" lon="-1.40409">
        <ele>33</ele>
        <time>2022-05-20T13:12:38Z</time>
      </trkpt>
      <trkpt lat="47.14698" lon="-1.40513">
        <ele>34</ele>
        <time>2022-05-20T13:14:13Z</time>
      </trkpt>
      <trkpt lat="47.14706" lon="-1.4057">
        <ele>33</ele>
        <time>2022-05-20T13:15:06Z</time>
      </trkpt>
      <trkpt lat="47.14736" lon="-1.4071">
        <ele>38</ele>
        <time>2022-05-20T13:17:19Z</time>
      </trkpt>
      <trkpt lat="47.14749" lon="-1.40746">
        <ele>41</ele>
        <time>2022-05-20T13:17:56Z</time>
      </trkpt>
      <trkpt lat="47.14777" lon="-1.40799">
        <ele>38</ele>
        <time>2022-05-20T13:18:57Z</time>
      </trkpt>
      <trkpt lat="47.14804" lon="-1.40839">
        <ele>39</ele>
        <time>2022-05-20T13:19:48Z</time>
      </trkpt>
      <trkpt lat="47.14804" lon="-1.40847">
        <ele>39</ele>
        <time>2022-05-20T13:19:55Z</time>
      </trkpt>
      <trkpt lat="47.14712" lon="-1.40907">
        <ele>43</ele>
        <time>2022-05-20T13:22:10Z</time>
      </trkpt>
      <trkpt lat="47.14691" lon="-1.40914">
        <ele>42</ele>
        <time>2022-05-20T13:22:38Z</time>
      </trkpt>
      <trkpt lat="47.14676" lon="-1.40911">
        <ele>42</ele>
        <time>2022-05-20T13:22:59Z</time>
      </trkpt>
      <trkpt lat="47.14624" lon="-1.40884">
        <ele>43</ele>
        <time>2022-05-20T13:24:12Z</time>
      </trkpt>
      <trkpt lat="47.1459" lon="-1.40875">
        <ele>43</ele>
        <time>2022-05-20T13:24:58Z</time>
      </trkpt>
      <trkpt lat="47.14571" lon="-1.40881">
        <ele>43</ele>
        <time>2022-05-20T13:25:24Z</time>
      </trkpt>
      <trkpt lat="47.14554" lon="-1.40892">
        <ele>43</ele>
        <time>2022-05-20T13:25:49Z</time>
      </trkpt>
      <trkpt lat="47.14539" lon="-1.40913">
        <ele>43</ele>
        <time>2022-05-20T13:26:17Z</time>
      </trkpt>
      <trkpt lat="47.14529" lon="-1.40943">
        <ele>42</ele>
        <time>2022-05-20T13:26:47Z</time>
      </trkpt>
      <trkpt lat="47.14527" lon="-1.40962">
        <ele>42</ele>
        <time>2022-05-20T13:27:04Z</time>
      </trkpt>
      <trkpt lat="47.14498" lon="-1.41007">
        <ele>42</ele>
        <time>2022-05-20T13:28:01Z</time>
      </trkpt>
      <trkpt lat="47.14464" lon="-1.41032">
        <ele>42</ele>
        <time>2022-05-20T13:28:51Z</time>
      </trkpt>
      <trkpt lat="47.14433" lon="-1.41039">
        <ele>41</ele>
        <time>2022-05-20T13:29:33Z</time>
      </trkpt>
      <trkpt lat="47.14419" lon="-1.41047">
        <ele>41</ele>
        <time>2022-05-20T13:29:53Z</time>
      </trkpt>
      <trkpt lat="47.14405" lon="-1.41203">
        <ele>42</ele>
        <time>2022-05-20T13:32:16Z</time>
      </trkpt>
      <trkpt lat="47.14406" lon="-1.41263">
        <ele>43</ele>
        <time>2022-05-20T13:33:11Z</time>
      </trkpt>
      <trkpt lat="47.14398" lon="-1.41291">
        <ele>43</ele>
        <time>2022-05-20T13:33:38Z</time>
      </trkpt>
      <trkpt lat="47.14401" lon="-1.41456">
        <ele>44</ele>
        <time>2022-05-20T13:36:08Z</time>
      </trkpt>
      <trkpt lat="47.14393" lon="-1.41555">
        <ele>45</ele>
        <time>2022-05-20T13:37:38Z</time>
      </trkpt>
      <trkpt lat="47.14399" lon="-1.41585">
        <ele>45</ele>
        <time>2022-05-20T13:38:07Z</time>
      </trkpt>
      <trkpt lat="47.14391" lon="-1.41593">
        <ele>45</ele>
        <time>2022-05-20T13:38:20Z</time>
      </trkpt>
      <trkpt lat="47.14368" lon="-1.41593">
        <ele>46</ele>
        <time>2022-05-20T13:38:50Z</time>
      </trkpt>
      <trkpt lat="47.14353" lon="-1.41605">
        <ele>46</ele>
        <time>2022-05-20T13:39:13Z</time>
      </trkpt>
      <trkpt lat="47.14303" lon="-1.41612">
        <ele>45</ele>
        <time>2022-05-20T13:40:20Z</time>
      </trkpt>
      <trkpt lat="47.14279" lon="-1.41629">
        <ele>45</ele>
        <time>2022-05-20T13:40:56Z</time>
      </trkpt>
      <trkpt lat="47.14268" lon="-1.41649">
        <ele>44</ele>
        <time>2022-05-20T13:41:19Z</time>
      </trkpt>
      <trkpt lat="47.14258" lon="-1.41655">
        <ele>44</ele>
        <time>2022-05-20T13:41:34Z</time>
      </trkpt>
      <trkpt lat="47.14252" lon="-1.41675">
        <ele>44</ele>
        <time>2022-05-20T13:41:53Z</time>
      </trkpt>
      <trkpt lat="47.14196" lon="-1.41706">
        <ele>39</ele>
        <time>2022-05-20T13:43:13Z</time>
      </trkpt>
      <trkpt lat="47.14178" lon="-1.41734">
        <ele>36</ele>
        <time>2022-05-20T13:43:48Z</time>
      </trkpt>
      <trkpt lat="47.14134" lon="-1.4178">
        <ele>28</ele>
        <time>2022-05-20T13:45:00Z</time>
      </trkpt>
      <trkpt lat="47.14096" lon="-1.4181">
        <ele>22</ele>
        <time>2022-05-20T13:45:58Z</time>
      </trkpt>
      <trkpt lat="47.14087" lon="-1.41822">
        <ele>19</ele>
        <time>2022-05-20T13:46:14Z</time>
      </trkpt>
      <trkpt lat="47.14053" lon="-1.41843">
        <ele>14</ele>
        <time>2022-05-20T13:47:03Z</time>
      </trkpt>
      <trkpt lat="47.14053" lon="-1.41868">
        <ele>12</ele>
        <time>2022-05-20T13:47:26Z</time>
      </trkpt>
      <trkpt lat="47.14069" lon="-1.41917">
        <ele>8</ele>
        <time>2022-05-20T13:48:15Z</time>
      </trkpt>
      <trkpt lat="47.14092" lon="-1.41952">
        <ele>9</ele>
        <time>2022-05-20T13:48:59Z</time>
      </trkpt>
      <trkpt lat="47.14129" lon="-1.41989">
        <ele>9</ele>
        <time>2022-05-20T13:49:59Z</time>
      </trkpt>
      <trkpt lat="47.14142" lon="-1.42011">
        <ele>8</ele>
        <time>2022-05-20T13:50:26Z</time>
      </trkpt>
      <trkpt lat="47.14177" lon="-1.42048">
        <ele>8</ele>
        <time>2022-05-20T13:51:23Z</time>
      </trkpt>
      <trkpt lat="47.14186" lon="-1.4208">
        <ele>8</ele>
        <time>2022-05-20T13:51:55Z</time>
      </trkpt>
      <trkpt lat="47.14197" lon="-1.42102">
        <ele>9</ele>
        <time>2022-05-20T13:52:19Z</time>
      </trkpt>
      <trkpt lat="47.1421" lon="-1.42109">
        <ele>10</ele>
        <time>2022-05-20T13:52:38Z</time>
      </trkpt>
      <trkpt lat="47.14224" lon="-1.42133">
        <ele>10</ele>
        <time>2022-05-20T13:53:06Z</time>
      </trkpt>
      <trkpt lat="47.1424" lon="-1.42143">
        <ele>11</ele>
        <time>2022-05-20T13:53:30Z</time>
      </trkpt>
      <trkpt lat="47.14278" lon="-1.42207">
        <ele>11</ele>
        <time>2022-05-20T13:54:47Z</time>
      </trkpt>
      <trkpt lat="47.14312" lon="-1.42249">
        <ele>10</ele>
        <time>2022-05-20T13:55:46Z</time>
      </trkpt>
      <trkpt lat="47.14332" lon="-1.42281">
        <ele>9</ele>
        <time>2022-05-20T13:56:26Z</time>
      </trkpt>
      <trkpt lat="47.14348" lon="-1.42321">
        <ele>8</ele>
        <time>2022-05-20T13:57:08Z</time>
      </trkpt>
      <trkpt lat="47.1437" lon="-1.42352">
        <ele>9</ele>
        <time>2022-05-20T13:57:48Z</time>
      </trkpt>
      <trkpt lat="47.14372" lon="-1.42366">
        <ele>9</ele>
        <time>2022-05-20T13:58:01Z</time>
      </trkpt>
      <trkpt lat="47.14384" lon="-1.42394">
        <ele>9</ele>
        <time>2022-05-20T13:58:31Z</time>
      </trkpt>
      <trkpt lat="47.14399" lon="-1.4241">
        <ele>10</ele>
        <time>2022-05-20T13:58:56Z</time>
      </trkpt>
      <trkpt lat="47.14431" lon="-1.42403">
        <ele>13</ele>
        <time>2022-05-20T13:59:39Z</time>
      </trkpt>
      <trkpt lat="47.14445" lon="-1.4239">
        <ele>15</ele>
        <time>2022-05-20T14:00:01Z</time>
      </trkpt>
      <trkpt lat="47.14461" lon="-1.42382">
        <ele>17</ele>
        <time>2022-05-20T14:00:24Z</time>
      </trkpt>
      <trkpt lat="47.14472" lon="-1.42366">
        <ele>18</ele>
        <time>2022-05-20T14:00:45Z</time>
      </trkpt>
      <trkpt lat="47.14496" lon="-1.42349">
        <ele>21</ele>
        <time>2022-05-20T14:01:20Z</time>
      </trkpt>
      <trkpt lat="47.14532" lon="-1.42315">
        <ele>23</ele>
        <time>2022-05-20T14:02:17Z</time>
      </trkpt>
      <trkpt lat="47.1454" lon="-1.423">
        <ele>23</ele>
        <time>2022-05-20T14:02:34Z</time>
      </trkpt>
      <trkpt lat="47.14534" lon="-1.42253">
        <ele>22</ele>
        <time>2022-05-20T14:03:18Z</time>
      </trkpt>
      <trkpt lat="47.14535" lon="-1.42243">
        <ele>22</ele>
        <time>2022-05-20T14:03:27Z</time>
      </trkpt>
      <trkpt lat="47.1454" lon="-1.42237">
        <ele>22</ele>
        <time>2022-05-20T14:03:36Z</time>
      </trkpt>
      <trkpt lat="47.14587" lon="-1.42201">
        <ele>20</ele>
        <time>2022-05-20T14:04:46Z</time>
      </trkpt>
      <trkpt lat="47.14622" lon="-1.42191">
        <ele>16</ele>
        <time>2022-05-20T14:05:34Z</time>
      </trkpt>
      <trkpt lat="47.1467" lon="-1.4216">
        <ele>11</ele>
        <time>2022-05-20T14:06:44Z</time>
      </trkpt>
      <trkpt lat="47.14694" lon="-1.42156">
        <ele>9</ele>
        <time>2022-05-20T14:07:16Z</time>
      </trkpt>
      <trkpt lat="47.14717" lon="-1.42171">
        <ele>8</ele>
        <time>2022-05-20T14:07:50Z</time>
      </trkpt>
      <trkpt lat="47.14769" lon="-1.42234">
        <ele>8</ele>
        <time>2022-05-20T14:09:20Z</time>
      </trkpt>
      <trkpt lat="47.14791" lon="-1.42245">
        <ele>9</ele>
        <time>2022-05-20T14:09:51Z</time>
      </trkpt>
      <trkpt lat="47.14834" lon="-1.4228">
        <ele>12</ele>
        <time>2022-05-20T14:10:56Z</time>
      </trkpt>
      <trkpt lat="47.14863" lon="-1.42282">
        <ele>12</ele>
        <time>2022-05-20T14:11:35Z</time>
      </trkpt>
      <trkpt lat="47.14875" lon="-1.42288">
        <ele>13</ele>
        <time>2022-05-20T14:11:52Z</time>
      </trkpt>
      <trkpt lat="47.14903" lon="-1.42284">
        <ele>12</ele>
        <time>2022-05-20T14:12:29Z</time>
      </trkpt>
      <trkpt lat="47.14929" lon="-1.42291">
        <ele>13</ele>
        <time>2022-05-20T14:13:05Z</time>
      </trkpt>
      <trkpt lat="47.14948" lon="-1.4229">
        <ele>12</ele>
        <time>2022-05-20T14:13:30Z</time>
      </trkpt>
      <trkpt lat="47.14969" lon="-1.42312">
        <ele>14</ele>
        <time>2022-05-20T14:14:04Z</time>
      </trkpt>
      <trkpt lat="47.14999" lon="-1.4232">
        <ele>15</ele>
        <time>2022-05-20T14:14:45Z</time>
      </trkpt>
      <trkpt lat="47.15012" lon="-1.4233">
        <ele>15</ele>
        <time>2022-05-20T14:15:05Z</time>
      </trkpt>
      <trkpt lat="47.15017" lon="-1.42329">
        <ele>14</ele>
        <time>2022-05-20T14:15:11Z</time>
      </trkpt>
      <trkpt lat="47.15027" lon="-1.42335">
        <ele>14</ele>
        <time>2022-05-20T14:15:26Z</time>
      </trkpt>
      <trkpt lat="47.15089" lon="-1.42405">
        <ele>16</ele>
        <time>2022-05-20T14:17:10Z</time>
      </trkpt>
      <trkpt lat="47.15092" lon="-1.42424">
        <ele>17</ele>
        <time>2022-05-20T14:17:28Z</time>
      </trkpt>
      <trkpt lat="47.15118" lon="-1.42489">
        <ele>17</ele>
        <time>2022-05-20T14:18:36Z</time>
      </trkpt>
      <trkpt lat="47.15155" lon="-1.42536">
        <ele>15</ele>
        <time>2022-05-20T14:19:42Z</time>
      </trkpt>
      <trkpt lat="47.15181" lon="-1.42587">
        <ele>18</ele>
        <time>2022-05-20T14:20:39Z</time>
      </trkpt>
      <trkpt lat="47.15193" lon="-1.42598">
        <ele>17</ele>
        <time>2022-05-20T14:20:58Z</time>
      </trkpt>
      <trkpt lat="47.15203" lon="-1.42627">
        <ele>18</ele>
        <time>2022-05-20T14:21:28Z</time>
      </trkpt>
      <trkpt lat="47.15225" lon="-1.42661">
        <ele>17</ele>
        <time>2022-05-20T14:22:10Z</time>
      </trkpt>
      <trkpt lat="47.15235" lon="-1.42689">
        <ele>18</ele>
        <time>2022-05-20T14:22:39Z</time>
      </trkpt>
      <trkpt lat="47.15237" lon="-1.42741">
        <ele>21</ele>
        <time>2022-05-20T14:23:26Z</time>
      </trkpt>
      <trkpt lat="47.15252" lon="-1.42819">
        <ele>22</ele>
        <time>2022-05-20T14:24:40Z</time>
      </trkpt>
      <trkpt lat="47.15256" lon="-1.42898">
        <ele>24</ele>
        <time>2022-05-20T14:25:52Z</time>
      </trkpt>
      <trkpt lat="47.15265" lon="-1.42962">
        <ele>23</ele>
        <time>2022-05-20T14:26:51Z</time>
      </trkpt>
      <trkpt lat="47.15259" lon="-1.42977">
        <ele>24</ele>
        <time>2022-05-20T14:27:07Z</time>
      </trkpt>
      <trkpt lat="47.15235" lon="-1.42993">
        <ele>25</ele>
        <time>2022-05-20T14:27:42Z</time>
      </trkpt>
      <trkpt lat="47.15232" lon="-1.43003">
        <ele>25</ele>
        <time>2022-05-20T14:27:52Z</time>
      </trkpt>
      <trkpt lat="47.1525" lon="-1.43044">
        <ele>23</ele>
        <time>2022-05-20T14:28:36Z</time>
      </trkpt>
      <trkpt lat="47.1527" lon="-1.43132">
        <ele>18</ele>
        <time>2022-05-20T14:30:01Z</time>
      </trkpt>
      <trkpt lat="47.15277" lon="-1.43155">
        <ele>17</ele>
        <time>2022-05-20T14:30:23Z</time>
      </trkpt>
      <trkpt lat="47.15289" lon="-1.43175">
        <ele>15</ele>
        <time>2022-05-20T14:30:48Z</time>
      </trkpt>
      <trkpt lat="47.15303" lon="-1.43228">
        <ele>12</ele>
        <time>2022-05-20T14:31:39Z</time>
      </trkpt>
      <trkpt lat="47.15298" lon="-1.4328">
        <ele>12</ele>
        <time>2022-05-20T14:32:27Z</time>
      </trkpt>
      <trkpt lat="47.15279" lon="-1.43331">
        <ele>14</ele>
        <time>2022-05-20T14:33:20Z</time>
      </trkpt>
      <trkpt lat="47.15278" lon="-1.43363">
        <ele>14</ele>
        <time>2022-05-20T14:33:49Z</time>
      </trkpt>
      <trkpt lat="47.15284" lon="-1.43434">
        <ele>12</ele>
        <time>2022-05-20T14:34:54Z</time>
      </trkpt>
      <trkpt lat="47.15294" lon="-1.435">
        <ele>12</ele>
        <time>2022-05-20T14:35:55Z</time>
      </trkpt>
      <trkpt lat="47.15306" lon="-1.43532">
        <ele>10</ele>
        <time>2022-05-20T14:36:28Z</time>
      </trkpt>
      <trkpt lat="47.15313" lon="-1.43603">
        <ele>10</ele>
        <time>2022-05-20T14:37:33Z</time>
      </trkpt>
      <trkpt lat="47.15308" lon="-1.43621">
        <ele>11</ele>
        <time>2022-05-20T14:37:51Z</time>
      </trkpt>
      <trkpt lat="47.15313" lon="-1.43663">
        <ele>11</ele>
        <time>2022-05-20T14:38:30Z</time>
      </trkpt>
      <trkpt lat="47.15305" lon="-1.43714">
        <ele>13</ele>
        <time>2022-05-20T14:39:17Z</time>
      </trkpt>
      <trkpt lat="47.1531" lon="-1.43729">
        <ele>13</ele>
        <time>2022-05-20T14:39:32Z</time>
      </trkpt>
      <trkpt lat="47.15314" lon="-1.43799">
        <ele>11</ele>
        <time>2022-05-20T14:40:36Z</time>
      </trkpt>
      <trkpt lat="47.1529" lon="-1.43868">
        <ele>13</ele>
        <time>2022-05-20T14:41:46Z</time>
      </trkpt>
      <trkpt lat="47.15292" lon="-1.43894">
        <ele>12</ele>
        <time>2022-05-20T14:42:10Z</time>
      </trkpt>
      <trkpt lat="47.15302" lon="-1.43917">
        <ele>11</ele>
        <time>2022-05-20T14:42:35Z</time>
      </trkpt>
      <trkpt lat="47.15304" lon="-1.43933">
        <ele>10</ele>
        <time>2022-05-20T14:42:50Z</time>
      </trkpt>
      <trkpt lat="47.15326" lon="-1.43955">
        <ele>7</ele>
        <time>2022-05-20T14:43:25Z</time>
      </trkpt>
      <trkpt lat="47.15331" lon="-1.4397">
        <ele>7</ele>
        <time>2022-05-20T14:43:40Z</time>
      </trkpt>
      <trkpt lat="47.15366" lon="-1.44015">
        <ele>8</ele>
        <time>2022-05-20T14:44:42Z</time>
      </trkpt>
      <trkpt lat="47.15378" lon="-1.44067">
        <ele>11</ele>
        <time>2022-05-20T14:45:32Z</time>
      </trkpt>
      <trkpt lat="47.15378" lon="-1.44091">
        <ele>12</ele>
        <time>2022-05-20T14:45:54Z</time>
      </trkpt>
      <trkpt lat="47.15385" lon="-1.44108">
        <ele>13</ele>
        <time>2022-05-20T14:46:12Z</time>
      </trkpt>
      <trkpt lat="47.15392" lon="-1.44101">
        <ele>14</ele>
        <time>2022-05-20T14:46:23Z</time>
      </trkpt>
      <trkpt lat="47.15386" lon="-1.44077">
        <ele>13</ele>
        <time>2022-05-20T14:46:46Z</time>
      </trkpt>
      <trkpt lat="47.15375" lon="-1.44052">
        <ele>10</ele>
        <time>2022-05-20T14:47:13Z</time>
      </trkpt>
      <trkpt lat="47.15367" lon="-1.44046">
        <ele>10</ele>
        <time>2022-05-20T14:47:25Z</time>
      </trkpt>
      <trkpt lat="47.15372" lon="-1.44026">
        <ele>9</ele>
        <time>2022-05-20T14:47:45Z</time>
      </trkpt>
      <trkpt lat="47.1537" lon="-1.44005">
        <ele>8</ele>
        <time>2022-05-20T14:48:04Z</time>
      </trkpt>
      <trkpt lat="47.15374" lon="-1.43997">
        <ele>8</ele>
        <time>2022-05-20T14:48:13Z</time>
      </trkpt>
      <trkpt lat="47.15385" lon="-1.43991">
        <ele>8</ele>
        <time>2022-05-20T14:48:29Z</time>
      </trkpt>
      <trkpt lat="47.15392" lon="-1.43976">
        <ele>8</ele>
        <time>2022-05-20T14:48:45Z</time>
      </trkpt>
      <trkpt lat="47.15412" lon="-1.43953">
        <ele>8</ele>
        <time>2022-05-20T14:49:19Z</time>
      </trkpt>
      <trkpt lat="47.15456" lon="-1.43919">
        <ele>9</ele>
        <time>2022-05-20T14:50:25Z</time>
      </trkpt>
      <trkpt lat="47.15459" lon="-1.43915">
        <ele>9</ele>
        <time>2022-05-20T14:50:31Z</time>
      </trkpt>
      <trkpt lat="47.15457" lon="-1.43889">
        <ele>8</ele>
        <time>2022-05-20T14:50:55Z</time>
      </trkpt>
      <trkpt lat="47.15468" lon="-1.43892">
        <ele>9</ele>
        <time>2022-05-20T14:51:09Z</time>
      </trkpt>
      <trkpt lat="47.15479" lon="-1.43889">
        <ele>10</ele>
        <time>2022-05-20T14:51:24Z</time>
      </trkpt>
      <trkpt lat="47.15484" lon="-1.43877">
        <ele>10</ele>
        <time>2022-05-20T14:51:37Z</time>
      </trkpt>
      <trkpt lat="47.15493" lon="-1.43869">
        <ele>10</ele>
        <time>2022-05-20T14:51:51Z</time>
      </trkpt>
      <trkpt lat="47.15537" lon="-1.43848">
        <ele>12</ele>
        <time>2022-05-20T14:52:53Z</time>
      </trkpt>
      <trkpt lat="47.15556" lon="-1.43797">
        <ele>12</ele>
        <time>2022-05-20T14:53:46Z</time>
      </trkpt>
      <trkpt lat="47.15573" lon="-1.43782">
        <ele>12</ele>
        <time>2022-05-20T14:54:12Z</time>
      </trkpt>
      <trkpt lat="47.1559" lon="-1.43802">
        <ele>15</ele>
        <time>2022-05-20T14:54:41Z</time>
      </trkpt>
      <trkpt lat="47.15631" lon="-1.43881">
        <ele>23</ele>
        <time>2022-05-20T14:56:11Z</time>
      </trkpt>
      <trkpt lat="47.1564" lon="-1.43891">
        <ele>24</ele>
        <time>2022-05-20T14:56:26Z</time>
      </trkpt>
      <trkpt lat="47.15647" lon="-1.43919">
        <ele>25</ele>
        <time>2022-05-20T14:56:54Z</time>
      </trkpt>
      <trkpt lat="47.1568" lon="-1.43963">
        <ele>30</ele>
        <time>2022-05-20T14:57:53Z</time>
      </trkpt>
      <trkpt lat="47.15693" lon="-1.43977">
        <ele>31</ele>
        <time>2022-05-20T14:58:14Z</time>
      </trkpt>
      <trkpt lat="47.157" lon="-1.43979">
        <ele>31</ele>
        <time>2022-05-20T14:58:24Z</time>
      </trkpt>
      <trkpt lat="47.1572" lon="-1.44028">
        <ele>33</ele>
        <time>2022-05-20T14:59:16Z</time>
      </trkpt>
      <trkpt lat="47.15728" lon="-1.44032">
        <ele>33</ele>
        <time>2022-05-20T14:59:27Z</time>
      </trkpt>
      <trkpt lat="47.15779" lon="-1.43999">
        <ele>34</ele>
        <time>2022-05-20T15:00:41Z</time>
      </trkpt>
      <trkpt lat="47.15825" lon="-1.44001">
        <ele>35</ele>
        <time>2022-05-20T15:01:43Z</time>
      </trkpt>
      <trkpt lat="47.15838" lon="-1.43982">
        <ele>35</ele>
        <time>2022-05-20T15:02:07Z</time>
      </trkpt>
      <trkpt lat="47.1586" lon="-1.43989">
        <ele>35</ele>
        <time>2022-05-20T15:02:37Z</time>
      </trkpt>
      <trkpt lat="47.15905" lon="-1.43981">
        <ele>36</ele>
        <time>2022-05-20T15:03:38Z</time>
      </trkpt>
      <trkpt lat="47.1596" lon="-1.43993">
        <ele>36</ele>
        <time>2022-05-20T15:04:52Z</time>
      </trkpt>
      <trkpt lat="47.1597" lon="-1.4399">
        <ele>35</ele>
        <time>2022-05-20T15:05:06Z</time>
      </trkpt>
      <trkpt lat="47.15981" lon="-1.43992">
        <ele>35</ele>
        <time>2022-05-20T15:05:20Z</time>
      </trkpt>
      <trkpt lat="47.15993" lon="-1.43978">
        <ele>35</ele>
        <time>2022-05-20T15:05:41Z</time>
      </trkpt>
      <trkpt lat="47.16012" lon="-1.43967">
        <ele>35</ele>
        <time>2022-05-20T15:06:08Z</time>
      </trkpt>
      <trkpt lat="47.16021" lon="-1.43966">
        <ele>35</ele>
        <time>2022-05-20T15:06:20Z</time>
      </trkpt>
      <trkpt lat="47.16034" lon="-1.44">
        <ele>35</ele>
        <time>2022-05-20T15:06:56Z</time>
      </trkpt>
      <trkpt lat="47.16034" lon="-1.44013">
        <ele>35</ele>
        <time>2022-05-20T15:07:07Z</time>
      </trkpt>
      <trkpt lat="47.16043" lon="-1.44027">
        <ele>35</ele>
        <time>2022-05-20T15:07:25Z</time>
      </trkpt>
      <trkpt lat="47.16057" lon="-1.44072">
        <ele>34</ele>
        <time>2022-05-20T15:08:10Z</time>
      </trkpt>
      <trkpt lat="47.16064" lon="-1.44083">
        <ele>34</ele>
        <time>2022-05-20T15:08:23Z</time>
      </trkpt>
      <trkpt lat="47.16073" lon="-1.44129">
        <ele>33</ele>
        <time>2022-05-20T15:09:07Z</time>
      </trkpt>
      <trkpt lat="47.16091" lon="-1.44147">
        <ele>33</ele>
        <time>2022-05-20T15:09:36Z</time>
      </trkpt>
      <trkpt lat="47.16103" lon="-1.44168">
        <ele>33</ele>
        <time>2022-05-20T15:10:01Z</time>
      </trkpt>
      <trkpt lat="47.16116" lon="-1.44175">
        <ele>34</ele>
        <time>2022-05-20T15:10:19Z</time>
      </trkpt>
      <trkpt lat="47.16126" lon="-1.44177">
        <ele>34</ele>
        <time>2022-05-20T15:10:33Z</time>
      </trkpt>
      <trkpt lat="47.16136" lon="-1.44172">
        <ele>34</ele>
        <time>2022-05-20T15:10:47Z</time>
      </trkpt>
      <trkpt lat="47.1615" lon="-1.44173">
        <ele>35</ele>
        <time>2022-05-20T15:11:06Z</time>
      </trkpt>
      <trkpt lat="47.16214" lon="-1.4415">
        <ele>34</ele>
        <time>2022-05-20T15:12:34Z</time>
      </trkpt>
      <trkpt lat="47.16235" lon="-1.44152">
        <ele>34</ele>
        <time>2022-05-20T15:13:02Z</time>
      </trkpt>
      <trkpt lat="47.16255" lon="-1.44148">
        <ele>33</ele>
        <time>2022-05-20T15:13:29Z</time>
      </trkpt>
      <trkpt lat="47.1629" lon="-1.44155">
        <ele>33</ele>
        <time>2022-05-20T15:14:16Z</time>
      </trkpt>
      <trkpt lat="47.16307" lon="-1.44151">
        <ele>33</ele>
        <time>2022-05-20T15:14:39Z</time>
      </trkpt>
      <trkpt lat="47.16353" lon="-1.44098">
        <ele>31</ele>
        <time>2022-05-20T15:15:57Z</time>
      </trkpt>
      <trkpt lat="47.1638" lon="-1.44091">
        <ele>31</ele>
        <time>2022-05-20T15:16:33Z</time>
      </trkpt>
      <trkpt lat="47.16404" lon="-1.44073">
        <ele>31</ele>
        <time>2022-05-20T15:17:09Z</time>
      </trkpt>
      <trkpt lat="47.1642" lon="-1.44075">
        <ele>31</ele>
        <time>2022-05-20T15:17:31Z</time>
      </trkpt>
      <trkpt lat="47.16488" lon="-1.44031">
        <ele>34</ele>
        <time>2022-05-20T15:19:10Z</time>
      </trkpt>
      <trkpt lat="47.16511" lon="-1.44043">
        <ele>35</ele>
        <time>2022-05-20T15:19:42Z</time>
      </trkpt>
      <trkpt lat="47.16519" lon="-1.44056">
        <ele>35</ele>
        <time>2022-05-20T15:19:58Z</time>
      </trkpt>
      <trkpt lat="47.16515" lon="-1.44095">
        <ele>35</ele>
        <time>2022-05-20T15:20:34Z</time>
      </trkpt>
      <trkpt lat="47.16523" lon="-1.44151">
        <ele>36</ele>
        <time>2022-05-20T15:21:26Z</time>
      </trkpt>
      <trkpt lat="47.16518" lon="-1.44199">
        <ele>37</ele>
        <time>2022-05-20T15:22:10Z</time>
      </trkpt>
      <trkpt lat="47.16524" lon="-1.44233">
        <ele>37</ele>
        <time>2022-05-20T15:22:42Z</time>
      </trkpt>
      <trkpt lat="47.16551" lon="-1.44241">
        <ele>37</ele>
        <time>2022-05-20T15:23:19Z</time>
      </trkpt>
      <trkpt lat="47.16559" lon="-1.44267">
        <ele>38</ele>
        <time>2022-05-20T15:23:44Z</time>
      </trkpt>
      <trkpt lat="47.1659" lon="-1.44267">
        <ele>38</ele>
        <time>2022-05-20T15:24:26Z</time>
      </trkpt>
      <trkpt lat="47.16627" lon="-1.44255">
        <ele>38</ele>
        <time>2022-05-20T15:25:16Z</time>
      </trkpt>
      <trkpt lat="47.1665" lon="-1.44257">
        <ele>37</ele>
        <time>2022-05-20T15:25:47Z</time>
      </trkpt>
      <trkpt lat="47.16704" lon="-1.44317">
        <ele>37</ele>
        <time>2022-05-20T15:27:17Z</time>
      </trkpt>
      <trkpt lat="47.16748" lon="-1.44395">
        <ele>37</ele>
        <time>2022-05-20T15:28:49Z</time>
      </trkpt>
      <trkpt lat="47.16768" lon="-1.44442">
        <ele>37</ele>
        <time>2022-05-20T15:29:40Z</time>
      </trkpt>
      <trkpt lat="47.16785" lon="-1.44501">
        <ele>38</ele>
        <time>2022-05-20T15:30:38Z</time>
      </trkpt>
      <trkpt lat="47.16831" lon="-1.44624">
        <ele>39</ele>
        <time>2022-05-20T15:32:45Z</time>
      </trkpt>
      <trkpt lat="47.16837" lon="-1.44656">
        <ele>38</ele>
        <time>2022-05-20T15:33:15Z</time>
      </trkpt>
      <trkpt lat="47.16839" lon="-1.44704">
        <ele>38</ele>
        <time>2022-05-20T15:33:59Z</time>
      </trkpt>
      <trkpt lat="47.16846" lon="-1.44717">
        <ele>38</ele>
        <time>2022-05-20T15:34:14Z</time>
      </trkpt>
      <trkpt lat="47.16881" lon="-1.44711">
        <ele>38</ele>
        <time>2022-05-20T15:35:01Z</time>
      </trkpt>
      <trkpt lat="47.16909" lon="-1.44699">
        <ele>37</ele>
        <time>2022-05-20T15:35:40Z</time>
      </trkpt>
      <trkpt lat="47.16923" lon="-1.44704">
        <ele>37</ele>
        <time>2022-05-20T15:35:59Z</time>
      </trkpt>
      <trkpt lat="47.16958" lon="-1.447">
        <ele>37</ele>
        <time>2022-05-20T15:36:46Z</time>
      </trkpt>
      <trkpt lat="47.16975" lon="-1.44706">
        <ele>37</ele>
        <time>2022-05-20T15:37:09Z</time>
      </trkpt>
      <trkpt lat="47.16985" lon="-1.447">
        <ele>37</ele>
        <time>2022-05-20T15:37:24Z</time>
      </trkpt>
      <trkpt lat="47.17014" lon="-1.44699">
        <ele>36</ele>
        <time>2022-05-20T15:38:02Z</time>
      </trkpt>
      <trkpt lat="47.17028" lon="-1.44693">
        <ele>36</ele>
        <time>2022-05-20T15:38:22Z</time>
      </trkpt>
      <trkpt lat="47.17059" lon="-1.44669">
        <ele>35</ele>
        <time>2022-05-20T15:39:09Z</time>
      </trkpt>
      <trkpt lat="47.17099" lon="-1.44652">
        <ele>34</ele>
        <time>2022-05-20T15:40:04Z</time>
      </trkpt>
      <trkpt lat="47.1712" lon="-1.44637">
        <ele>34</ele>
        <time>2022-05-20T15:40:35Z</time>
      </trkpt>
      <trkpt lat="47.17215" lon="-1.44616">
        <ele>35</ele>
        <time>2022-05-20T15:42:44Z</time>
      </trkpt>
      <trkpt lat="47.17222" lon="-1.44609">
        <ele>36</ele>
        <time>2022-05-20T15:42:55Z</time>
      </trkpt>
      <trkpt lat="47.1724" lon="-1.4461">
        <ele>36</ele>
        <time>2022-05-20T15:43:19Z</time>
      </trkpt>
      <trkpt lat="47.17252" lon="-1.44598">
        <ele>36</ele>
        <time>2022-05-20T15:43:38Z</time>
      </trkpt>
      <trkpt lat="47.1727" lon="-1.44595">
        <ele>35</ele>
        <time>2022-05-20T15:44:02Z</time>
      </trkpt>
      <trkpt lat="47.17274" lon="-1.44599">
        <ele>35</ele>
        <time>2022-05-20T15:44:09Z</time>
      </trkpt>
      <trkpt lat="47.1728" lon="-1.44616">
        <ele>35</ele>
        <time>2022-05-20T15:44:26Z</time>
      </trkpt>
      <trkpt lat="47.1728" lon="-1.44651">
        <ele>35</ele>
        <time>2022-05-20T15:44:58Z</time>
      </trkpt>
      <trkpt lat="47.17284" lon="-1.44659">
        <ele>35</ele>
        <time>2022-05-20T15:45:07Z</time>
      </trkpt>
      <trkpt lat="47.17276" lon="-1.44681">
        <ele>35</ele>
        <time>2022-05-20T15:45:30Z</time>
      </trkpt>
      <trkpt lat="47.17277" lon="-1.44708">
        <ele>35</ele>
        <time>2022-05-20T15:45:54Z</time>
      </trkpt>
      <trkpt lat="47.17286" lon="-1.44746">
        <ele>34</ele>
        <time>2022-05-20T15:46:31Z</time>
      </trkpt>
      <trkpt lat="47.17283" lon="-1.44755">
        <ele>34</ele>
        <time>2022-05-20T15:46:40Z</time>
      </trkpt>
      <trkpt lat="47.17273" lon="-1.44759">
        <ele>34</ele>
        <time>2022-05-20T15:46:54Z</time>
      </trkpt>
      <trkpt lat="47.17282" lon="-1.44783">
        <ele>34</ele>
        <time>2022-05-20T15:47:18Z</time>
      </trkpt>
      <trkpt lat="47.17292" lon="-1.44795">
        <ele>34</ele>
        <time>2022-05-20T15:47:36Z</time>
      </trkpt>
      <trkpt lat="47.17289" lon="-1.44807">
        <ele>34</ele>
        <time>2022-05-20T15:47:47Z</time>
      </trkpt>
      <trkpt lat="47.173" lon="-1.44839">
        <ele>34</ele>
        <time>2022-05-20T15:48:20Z</time>
      </trkpt>
      <trkpt lat="47.173" lon="-1.44856">
        <ele>34</ele>
        <time>2022-05-20T15:48:35Z</time>
      </trkpt>
      <trkpt lat="47.17311" lon="-1.44878">
        <ele>34</ele>
        <time>2022-05-20T15:49:00Z</time>
      </trkpt>
      <trkpt lat="47.17317" lon="-1.44901">
        <ele>34</ele>
        <time>2022-05-20T15:49:22Z</time>
      </trkpt>
      <trkpt lat="47.17322" lon="-1.44974">
        <ele>33</ele>
        <time>2022-05-20T15:50:29Z</time>
      </trkpt>
      <trkpt lat="47.17327" lon="-1.4498">
        <ele>33</ele>
        <time>2022-05-20T15:50:38Z</time>
      </trkpt>
      <trkpt lat="47.17329" lon="-1.44993">
        <ele>32</ele>
        <time>2022-05-20T15:50:50Z</time>
      </trkpt>
      <trkpt lat="47.17325" lon="-1.4503">
        <ele>32</ele>
        <time>2022-05-20T15:51:24Z</time>
      </trkpt>
      <trkpt lat="47.17339" lon="-1.45062">
        <ele>31</ele>
        <time>2022-05-20T15:51:58Z</time>
      </trkpt>
      <trkpt lat="47.17348" lon="-1.45073">
        <ele>30</ele>
        <time>2022-05-20T15:52:14Z</time>
      </trkpt>
      <trkpt lat="47.17329" lon="-1.45142">
        <ele>30</ele>
        <time>2022-05-20T15:53:21Z</time>
      </trkpt>
      <trkpt lat="47.17324" lon="-1.45181">
        <ele>30</ele>
        <time>2022-05-20T15:53:57Z</time>
      </trkpt>
      <trkpt lat="47.17312" lon="-1.45214">
        <ele>30</ele>
        <time>2022-05-20T15:54:31Z</time>
      </trkpt>
      <trkpt lat="47.17316" lon="-1.45223">
        <ele>30</ele>
        <time>2022-05-20T15:54:41Z</time>
      </trkpt>
      <trkpt lat="47.17336" lon="-1.45242">
        <ele>29</ele>
        <time>2022-05-20T15:55:13Z</time>
      </trkpt>
      <trkpt lat="47.17344" lon="-1.45272">
        <ele>29</ele>
        <time>2022-05-20T15:55:42Z</time>
      </trkpt>
      <trkpt lat="47.17356" lon="-1.45291">
        <ele>29</ele>
        <time>2022-05-20T15:56:06Z</time>
      </trkpt>
      <trkpt lat="47.17385" lon="-1.45313">
        <ele>29</ele>
        <time>2022-05-20T15:56:49Z</time>
      </trkpt>
      <trkpt lat="47.17395" lon="-1.45317">
        <ele>28</ele>
        <time>2022-05-20T15:57:03Z</time>
      </trkpt>
      <trkpt lat="47.17425" lon="-1.45312">
        <ele>28</ele>
        <time>2022-05-20T15:57:43Z</time>
      </trkpt>
      <trkpt lat="47.17443" lon="-1.45317">
        <ele>27</ele>
        <time>2022-05-20T15:58:08Z</time>
      </trkpt>
      <trkpt lat="47.17462" lon="-1.45313">
        <ele>27</ele>
        <time>2022-05-20T15:58:33Z</time>
      </trkpt>
      <trkpt lat="47.17505" lon="-1.45339">
        <ele>26</ele>
        <time>2022-05-20T15:59:35Z</time>
      </trkpt>
      <trkpt lat="47.17505" lon="-1.45346">
        <ele>26</ele>
        <time>2022-05-20T15:59:42Z</time>
      </trkpt>
      <trkpt lat="47.17518" lon="-1.45358">
        <ele>27</ele>
        <time>2022-05-20T16:00:02Z</time>
      </trkpt>
      <trkpt lat="47.1753" lon="-1.45361">
        <ele>27</ele>
        <time>2022-05-20T16:00:18Z</time>
      </trkpt>
      <trkpt lat="47.17537" lon="-1.45358">
        <ele>27</ele>
        <time>2022-05-20T16:00:28Z</time>
      </trkpt>
      <trkpt lat="47.17559" lon="-1.454">
        <ele>27</ele>
        <time>2022-05-20T16:01:16Z</time>
      </trkpt>
      <trkpt lat="47.17574" lon="-1.4541">
        <ele>26</ele>
        <time>2022-05-20T16:01:38Z</time>
      </trkpt>
      <trkpt lat="47.1759" lon="-1.454">
        <ele>26</ele>
        <time>2022-05-20T16:02:01Z</time>
      </trkpt>
      <trkpt lat="47.17597" lon="-1.45401">
        <ele>26</ele>
        <time>2022-05-20T16:02:11Z</time>
      </trkpt>
      <trkpt lat="47.17611" lon="-1.45418">
        <ele>26</ele>
        <time>2022-05-20T16:02:35Z</time>
      </trkpt>
      <trkpt lat="47.17638" lon="-1.4543">
        <ele>26</ele>
        <time>2022-05-20T16:03:13Z</time>
      </trkpt>
      <trkpt lat="47.17682" lon="-1.45473">
        <ele>24</ele>
        <time>2022-05-20T16:04:23Z</time>
      </trkpt>
      <trkpt lat="47.17698" lon="-1.45482">
        <ele>23</ele>
        <time>2022-05-20T16:04:46Z</time>
      </trkpt>
      <trkpt lat="47.17723" lon="-1.45515">
        <ele>22</ele>
        <time>2022-05-20T16:05:31Z</time>
      </trkpt>
      <trkpt lat="47.17737" lon="-1.45522">
        <ele>22</ele>
        <time>2022-05-20T16:05:51Z</time>
      </trkpt>
      <trkpt lat="47.17768" lon="-1.45559">
        <ele>22</ele>
        <time>2022-05-20T16:06:44Z</time>
      </trkpt>
      <trkpt lat="47.17792" lon="-1.45568">
        <ele>22</ele>
        <time>2022-05-20T16:07:17Z</time>
      </trkpt>
      <trkpt lat="47.17815" lon="-1.45587">
        <ele>21</ele>
        <time>2022-05-20T16:07:52Z</time>
      </trkpt>
      <trkpt lat="47.17821" lon="-1.45603">
        <ele>21</ele>
        <time>2022-05-20T16:08:09Z</time>
      </trkpt>
      <trkpt lat="47.17837" lon="-1.45623">
        <ele>20</ele>
        <time>2022-05-20T16:08:37Z</time>
      </trkpt>
      <trkpt lat="47.17842" lon="-1.45648">
        <ele>19</ele>
        <time>2022-05-20T16:09:00Z</time>
      </trkpt>
      <trkpt lat="47.17853" lon="-1.45655">
        <ele>19</ele>
        <time>2022-05-20T16:09:16Z</time>
      </trkpt>
      <trkpt lat="47.17874" lon="-1.45685">
        <ele>19</ele>
        <time>2022-05-20T16:09:55Z</time>
      </trkpt>
      <trkpt lat="47.17876" lon="-1.45698">
        <ele>19</ele>
        <time>2022-05-20T16:10:07Z</time>
      </trkpt>
      <trkpt lat="47.17894" lon="-1.4574">
        <ele>19</ele>
        <time>2022-05-20T16:10:52Z</time>
      </trkpt>
      <trkpt lat="47.17903" lon="-1.45749">
        <ele>20</ele>
        <time>2022-05-20T16:11:07Z</time>
      </trkpt>
      <trkpt lat="47.1792" lon="-1.45757">
        <ele>20</ele>
        <time>2022-05-20T16:11:31Z</time>
      </trkpt>
      <trkpt lat="47.17935" lon="-1.45773">
        <ele>19</ele>
        <time>2022-05-20T16:11:56Z</time>
      </trkpt>
      <trkpt lat="47.17951" lon="-1.45801">
        <ele>19</ele>
        <time>2022-05-20T16:12:29Z</time>
      </trkpt>
      <trkpt lat="47.17962" lon="-1.45806">
        <ele>19</ele>
        <time>2022-05-20T16:12:44Z</time>
      </trkpt>
      <trkpt lat="47.17984" lon="-1.45827">
        <ele>19</ele>
        <time>2022-05-20T16:13:19Z</time>
      </trkpt>
      <trkpt lat="47.1801" lon="-1.45864">
        <ele>20</ele>
        <time>2022-05-20T16:14:07Z</time>
      </trkpt>
      <trkpt lat="47.1801" lon="-1.45887">
        <ele>20</ele>
        <time>2022-05-20T16:14:28Z</time>
      </trkpt>
      <trkpt lat="47.18014" lon="-1.45865">
        <ele>20</ele>
        <time>2022-05-20T16:14:49Z</time>
      </trkpt>
      <trkpt lat="47.1801" lon="-1.45867">
        <ele>20</ele>
        <time>2022-05-20T16:14:54Z</time>
      </trkpt>
      <trkpt lat="47.18004" lon="-1.4586">
        <ele>19</ele>
        <time>2022-05-20T16:15:05Z</time>
      </trkpt>
      <trkpt lat="47.17999" lon="-1.4587">
        <ele>19</ele>
        <time>2022-05-20T16:15:16Z</time>
      </trkpt>
      <trkpt lat="47.18006" lon="-1.45869">
        <ele>19</ele>
        <time>2022-05-20T16:15:25Z</time>
      </trkpt>
      <trkpt lat="47.18043" lon="-1.45901">
        <ele>22</ele>
        <time>2022-05-20T16:16:23Z</time>
      </trkpt>
      <trkpt lat="47.18091" lon="-1.45975">
        <ele>24</ele>
        <time>2022-05-20T16:17:55Z</time>
      </trkpt>
      <trkpt lat="47.18105" lon="-1.45986">
        <ele>24</ele>
        <time>2022-05-20T16:18:17Z</time>
      </trkpt>
      <trkpt lat="47.18111" lon="-1.45997">
        <ele>24</ele>
        <time>2022-05-20T16:18:29Z</time>
      </trkpt>
      <trkpt lat="47.1812" lon="-1.46">
        <ele>24</ele>
        <time>2022-05-20T16:18:42Z</time>
      </trkpt>
      <trkpt lat="47.18127" lon="-1.46022">
        <ele>24</ele>
        <time>2022-05-20T16:19:04Z</time>
      </trkpt>
      <trkpt lat="47.18141" lon="-1.46033">
        <ele>25</ele>
        <time>2022-05-20T16:19:25Z</time>
      </trkpt>
      <trkpt lat="47.18187" lon="-1.46097">
        <ele>28</ele>
        <time>2022-05-20T16:20:49Z</time>
      </trkpt>
      <trkpt lat="47.18213" lon="-1.46123">
        <ele>30</ele>
        <time>2022-05-20T16:21:31Z</time>
      </trkpt>
      <trkpt lat="47.18237" lon="-1.46163">
        <ele>31</ele>
        <time>2022-05-20T16:22:20Z</time>
      </trkpt>
      <trkpt lat="47.18249" lon="-1.46167">
        <ele>32</ele>
        <time>2022-05-20T16:22:36Z</time>
      </trkpt>
      <trkpt lat="47.18291" lon="-1.46223">
        <ele>33</ele>
        <time>2022-05-20T16:23:52Z</time>
      </trkpt>
      <trkpt lat="47.18334" lon="-1.46252">
        <ele>34</ele>
        <time>2022-05-20T16:24:55Z</time>
      </trkpt>
      <trkpt lat="47.18349" lon="-1.46297">
        <ele>34</ele>
        <time>2022-05-20T16:25:40Z</time>
      </trkpt>
      <trkpt lat="47.18355" lon="-1.46303">
        <ele>34</ele>
        <time>2022-05-20T16:25:50Z</time>
      </trkpt>
      <trkpt lat="47.18353" lon="-1.46328">
        <ele>34</ele>
        <time>2022-05-20T16:26:13Z</time>
      </trkpt>
      <trkpt lat="47.18363" lon="-1.46342">
        <ele>34</ele>
        <time>2022-05-20T16:26:31Z</time>
      </trkpt>
      <trkpt lat="47.18368" lon="-1.46358">
        <ele>35</ele>
        <time>2022-05-20T16:26:47Z</time>
      </trkpt>
      <trkpt lat="47.18389" lon="-1.46379">
        <ele>35</ele>
        <time>2022-05-20T16:27:21Z</time>
      </trkpt>
      <trkpt lat="47.18412" lon="-1.46428">
        <ele>36</ele>
        <time>2022-05-20T16:28:15Z</time>
      </trkpt>
      <trkpt lat="47.18418" lon="-1.46434">
        <ele>36</ele>
        <time>2022-05-20T16:28:25Z</time>
      </trkpt>
      <trkpt lat="47.18433" lon="-1.46485">
        <ele>35</ele>
        <time>2022-05-20T16:29:15Z</time>
      </trkpt>
      <trkpt lat="47.18433" lon="-1.46513">
        <ele>35</ele>
        <time>2022-05-20T16:29:41Z</time>
      </trkpt>
      <trkpt lat="47.18424" lon="-1.46548">
        <ele>34</ele>
        <time>2022-05-20T16:30:15Z</time>
      </trkpt>
      <trkpt lat="47.18413" lon="-1.4657">
        <ele>34</ele>
        <time>2022-05-20T16:30:39Z</time>
      </trkpt>
      <trkpt lat="47.18422" lon="-1.46595">
        <ele>34</ele>
        <time>2022-05-20T16:31:05Z</time>
      </trkpt>
      <trkpt lat="47.18427" lon="-1.4663">
        <ele>34</ele>
        <time>2022-05-20T16:31:37Z</time>
      </trkpt>
      <trkpt lat="47.18421" lon="-1.46646">
        <ele>33</ele>
        <time>2022-05-20T16:31:54Z</time>
      </trkpt>
      <trkpt lat="47.18421" lon="-1.46703">
        <ele>33</ele>
        <time>2022-05-20T16:32:46Z</time>
      </trkpt>
      <trkpt lat="47.18423" lon="-1.46748">
        <ele>33</ele>
        <time>2022-05-20T16:33:27Z</time>
      </trkpt>
      <trkpt lat="47.1843" lon="-1.46764">
        <ele>33</ele>
        <time>2022-05-20T16:33:44Z</time>
      </trkpt>
      <trkpt lat="47.18428" lon="-1.46865">
        <ele>32</ele>
        <time>2022-05-20T16:35:16Z</time>
      </trkpt>
      <trkpt lat="47.18443" lon="-1.46928">
        <ele>31</ele>
        <time>2022-05-20T16:36:16Z</time>
      </trkpt>
      <trkpt lat="47.18446" lon="-1.46951">
        <ele>30</ele>
        <time>2022-05-20T16:36:37Z</time>
      </trkpt>
      <trkpt lat="47.18443" lon="-1.46979">
        <ele>29</ele>
        <time>2022-05-20T16:37:03Z</time>
      </trkpt>
      <trkpt lat="47.18456" lon="-1.46988">
        <ele>29</ele>
        <time>2022-05-20T16:37:22Z</time>
      </trkpt>
      <trkpt lat="47.18502" lon="-1.4698">
        <ele>30</ele>
        <time>2022-05-20T16:38:24Z</time>
      </trkpt>
      <trkpt lat="47.18515" lon="-1.46999">
        <ele>30</ele>
        <time>2022-05-20T16:38:48Z</time>
      </trkpt>
      <trkpt lat="47.18527" lon="-1.47008">
        <ele>30</ele>
        <time>2022-05-20T16:39:06Z</time>
      </trkpt>
      <trkpt lat="47.18546" lon="-1.47012">
        <ele>30</ele>
        <time>2022-05-20T16:39:32Z</time>
      </trkpt>
      <trkpt lat="47.18559" lon="-1.4701">
        <ele>30</ele>
        <time>2022-05-20T16:39:49Z</time>
      </trkpt>
      <trkpt lat="47.18522" lon="-1.47008">
        <ele>30</ele>
        <time>2022-05-20T16:40:39Z</time>
      </trkpt>
      <trkpt lat="47.18512" lon="-1.47001">
        <ele>30</ele>
        <time>2022-05-20T16:40:54Z</time>
      </trkpt>
      <trkpt lat="47.18499" lon="-1.46983">
        <ele>30</ele>
        <time>2022-05-20T16:41:17Z</time>
      </trkpt>
      <trkpt lat="47.1848" lon="-1.46994">
        <ele>30</ele>
        <time>2022-05-20T16:41:45Z</time>
      </trkpt>
      <trkpt lat="47.18448" lon="-1.46998">
        <ele>29</ele>
        <time>2022-05-20T16:42:28Z</time>
      </trkpt>
      <trkpt lat="47.18443" lon="-1.47011">
        <ele>28</ele>
        <time>2022-05-20T16:42:41Z</time>
      </trkpt>
      <trkpt lat="47.18442" lon="-1.47041">
        <ele>27</ele>
        <time>2022-05-20T16:43:08Z</time>
      </trkpt>
      <trkpt lat="47.18452" lon="-1.47096">
        <ele>26</ele>
        <time>2022-05-20T16:44:00Z</time>
      </trkpt>
      <trkpt lat="47.18451" lon="-1.47121">
        <ele>25</ele>
        <time>2022-05-20T16:44:23Z</time>
      </trkpt>
      <trkpt lat="47.18442" lon="-1.47151">
        <ele>23</ele>
        <time>2022-05-20T16:44:52Z</time>
      </trkpt>
      <trkpt lat="47.18444" lon="-1.47183">
        <ele>22</ele>
        <time>2022-05-20T16:45:22Z</time>
      </trkpt>
      <trkpt lat="47.1844" lon="-1.47191">
        <ele>22</ele>
        <time>2022-05-20T16:45:31Z</time>
      </trkpt>
      <trkpt lat="47.1841" lon="-1.47203">
        <ele>21</ele>
        <time>2022-05-20T16:46:12Z</time>
      </trkpt>
      <trkpt lat="47.18405" lon="-1.47215">
        <ele>21</ele>
        <time>2022-05-20T16:46:25Z</time>
      </trkpt>
      <trkpt lat="47.1839" lon="-1.47229">
        <ele>20</ele>
        <time>2022-05-20T16:46:49Z</time>
      </trkpt>
      <trkpt lat="47.18378" lon="-1.47249">
        <ele>19</ele>
        <time>2022-05-20T16:47:13Z</time>
      </trkpt>
      <trkpt lat="47.18368" lon="-1.47282">
        <ele>19</ele>
        <time>2022-05-20T16:47:46Z</time>
      </trkpt>
      <trkpt lat="47.1837" lon="-1.47348">
        <ele>18</ele>
        <time>2022-05-20T16:48:45Z</time>
      </trkpt>
      <trkpt lat="47.1839" lon="-1.47447">
        <ele>19</ele>
        <time>2022-05-20T16:50:19Z</time>
      </trkpt>
      <trkpt lat="47.18397" lon="-1.47466">
        <ele>19</ele>
        <time>2022-05-20T16:50:39Z</time>
      </trkpt>
      <trkpt lat="47.18405" lon="-1.47474">
        <ele>20</ele>
        <time>2022-05-20T16:50:52Z</time>
      </trkpt>
      <trkpt lat="47.18415" lon="-1.47477">
        <ele>20</ele>
        <time>2022-05-20T16:51:05Z</time>
      </trkpt>
      <trkpt lat="47.18408" lon="-1.47494">
        <ele>20</ele>
        <time>2022-05-20T16:51:23Z</time>
      </trkpt>
      <trkpt lat="47.18414" lon="-1.47519">
        <ele>20</ele>
        <time>2022-05-20T16:51:47Z</time>
      </trkpt>
      <trkpt lat="47.18413" lon="-1.47532">
        <ele>20</ele>
        <time>2022-05-20T16:51:59Z</time>
      </trkpt>
      <trkpt lat="47.18406" lon="-1.47536">
        <ele>20</ele>
        <time>2022-05-20T16:52:09Z</time>
      </trkpt>
      <trkpt lat="47.18405" lon="-1.47545">
        <ele>20</ele>
        <time>2022-05-20T16:52:18Z</time>
      </trkpt>
      <trkpt lat="47.18412" lon="-1.47599">
        <ele>20</ele>
        <time>2022-05-20T16:53:07Z</time>
      </trkpt>
      <trkpt lat="47.1843" lon="-1.47616">
        <ele>21</ele>
        <time>2022-05-20T16:53:36Z</time>
      </trkpt>
      <trkpt lat="47.18435" lon="-1.47627">
        <ele>21</ele>
        <time>2022-05-20T16:53:48Z</time>
      </trkpt>
      <trkpt lat="47.18448" lon="-1.47632">
        <ele>22</ele>
        <time>2022-05-20T16:54:06Z</time>
      </trkpt>
      <trkpt lat="47.18456" lon="-1.47632">
        <ele>22</ele>
        <time>2022-05-20T16:54:17Z</time>
      </trkpt>
      <trkpt lat="47.18463" lon="-1.47621">
        <ele>23</ele>
        <time>2022-05-20T16:54:30Z</time>
      </trkpt>
      <trkpt lat="47.1848" lon="-1.47612">
        <ele>24</ele>
        <time>2022-05-20T16:54:54Z</time>
      </trkpt>
      <trkpt lat="47.18488" lon="-1.47618">
        <ele>24</ele>
        <time>2022-05-20T16:55:06Z</time>
      </trkpt>
      <trkpt lat="47.18494" lon="-1.47617">
        <ele>24</ele>
        <time>2022-05-20T16:55:14Z</time>
      </trkpt>
      <trkpt lat="47.18526" lon="-1.4765">
        <ele>25</ele>
        <time>2022-05-20T16:56:06Z</time>
      </trkpt>
      <trkpt lat="47.1855" lon="-1.47645">
        <ele>25</ele>
        <time>2022-05-20T16:56:39Z</time>
      </trkpt>
      <trkpt lat="47.18565" lon="-1.47655">
        <ele>25</ele>
        <time>2022-05-20T16:57:01Z</time>
      </trkpt>
      <trkpt lat="47.18578" lon="-1.47674">
        <ele>26</ele>
        <time>2022-05-20T16:57:25Z</time>
      </trkpt>
      <trkpt lat="47.18582" lon="-1.47685">
        <ele>26</ele>
        <time>2022-05-20T16:57:37Z</time>
      </trkpt>
      <trkpt lat="47.18576" lon="-1.477">
        <ele>27</ele>
        <time>2022-05-20T16:57:52Z</time>
      </trkpt>
    </trkseg>
  </trk>
</gpx>